sensor_id;sensor_type;location;lat;lon;timestamp;P1;durP1;ratioP1;P2;durP2;ratioP2
37903;SDS011;23738;50.422;18.758;2022-09-13T19:29:21;6.15;;;5.20;;
37903;SDS011;23738;50.422;18.758;2022-09-13T19:31:48;9.20;;;5.58;;
37903;SDS011;23738;50.422;18.758;2022-09-13T19:34:17;8.08;;;5.35;;
37903;SDS011;23738;50.422;18.758;2022-09-13T19:36:45;7.92;;;5.35;;
37903;SDS011;23738;50.422;18.758;2022-09-13T19:39:13;6.20;;;5.37;;
37903;SDS011;23738;50.422;18.758;2022-09-13T19:41:39;5.10;;;4.60;;
37903;SDS011;23738;50.422;18.758;2022-09-13T19:44:06;5.80;;;4.67;;
37903;SDS011;23738;50.422;18.758;2022-09-13T19:46:33;7.65;;;5.17;;
37903;SDS011;23738;50.422;18.758;2022-09-13T19:49:02;6.70;;;4.53;;
37903;SDS011;23738;50.422;18.758;2022-09-13T19:51:30;6.30;;;4.12;;
37903;SDS011;23738;50.422;18.758;2022-09-13T19:54:00;11.03;;;4.72;;
37903;SDS011;23738;50.422;18.758;2022-09-13T19:56:29;4.75;;;4.22;;
37903;SDS011;23738;50.422;18.758;2022-09-13T19:59:02;6.35;;;4.55;;
37903;SDS011;23738;50.422;18.758;2022-09-13T20:01:33;5.12;;;4.62;;
37903;SDS011;23738;50.422;18.758;2022-09-13T20:04:04;5.87;;;4.17;;
37903;SDS011;23738;50.422;18.758;2022-09-13T20:06:33;4.83;;;3.80;;
37903;SDS011;23738;50.422;18.758;2022-09-13T20:09:02;7.75;;;3.90;;
37903;SDS011;23738;50.422;18.758;2022-09-13T20:11:29;4.83;;;4.03;;
37903;SDS011;23738;50.422;18.758;2022-09-13T20:13:56;4.30;;;3.90;;
37903;SDS011;23738;50.422;18.758;2022-09-13T20:16:24;6.72;;;3.98;;
37903;SDS011;23738;50.422;18.758;2022-09-13T20:18:56;7.92;;;4.25;;
37903;SDS011;23738;50.422;18.758;2022-09-13T20:21:23;5.92;;;4.65;;
37903;SDS011;23738;50.422;18.758;2022-09-13T20:23:52;6.40;;;4.65;;
37903;SDS011;23738;50.422;18.758;2022-09-13T20:26:22;7.00;;;4.80;;
37903;SDS011;23738;50.422;18.758;2022-09-13T20:28:53;6.28;;;4.92;;
37903;SDS011;23738;50.422;18.758;2022-09-13T20:31:21;6.22;;;4.00;;
37903;SDS011;23738;50.422;18.758;2022-09-13T20:33:52;5.72;;;4.15;;
37903;SDS011;23738;50.422;18.758;2022-09-13T20:36:24;7.42;;;4.12;;
37903;SDS011;23738;50.422;18.758;2022-09-13T20:38:52;5.75;;;4.70;;
37903;SDS011;23738;50.422;18.758;2022-09-13T20:41:19;5.30;;;4.40;;
37903;SDS011;23738;50.422;18.758;2022-09-13T20:43:46;4.80;;;4.25;;
37903;SDS011;23738;50.422;18.758;2022-09-13T20:46:15;5.15;;;3.67;;
37903;SDS011;23738;50.422;18.758;2022-09-13T20:48:43;4.60;;;4.20;;
37903;SDS011;23738;50.422;18.758;2022-09-13T20:51:10;4.47;;;3.45;;
37903;SDS011;23738;50.422;18.758;2022-09-13T20:53:42;5.37;;;3.58;;
37903;SDS011;23738;50.422;18.758;2022-09-13T20:56:12;4.33;;;3.92;;
37903;SDS011;23738;50.422;18.758;2022-09-13T20:58:41;4.33;;;3.90;;
37903;SDS011;23738;50.422;18.758;2022-09-13T21:01:10;5.12;;;4.00;;
37903;SDS011;23738;50.422;18.758;2022-09-13T21:03:39;4.50;;;4.10;;
37903;SDS011;23738;50.422;18.758;2022-09-13T21:06:07;5.08;;;3.80;;
37903;SDS011;23738;50.422;18.758;2022-09-13T21:08:34;5.37;;;3.55;;
37903;SDS011;23738;50.422;18.758;2022-09-13T21:11:11;3.72;;;3.37;;
37903;SDS011;23738;50.422;18.758;2022-09-13T21:13:39;3.80;;;3.42;;
37903;SDS011;23738;50.422;18.758;2022-09-13T21:16:09;10.93;;;3.95;;
37903;SDS011;23738;50.422;18.758;2022-09-13T21:18:43;4.45;;;3.90;;
37903;SDS011;23738;50.422;18.758;2022-09-13T21:21:16;4.28;;;3.72;;
37903;SDS011;23738;50.422;18.758;2022-09-13T21:23:50;4.50;;;3.95;;
37903;SDS011;23738;50.422;18.758;2022-09-13T21:26:17;4.55;;;3.67;;
37903;SDS011;23738;50.422;18.758;2022-09-13T21:28:47;3.52;;;3.10;;
37903;SDS011;23738;50.422;18.758;2022-09-13T21:31:16;3.92;;;3.62;;
37903;SDS011;23738;50.422;18.758;2022-09-13T21:33:47;7.00;;;3.60;;
37903;SDS011;23738;50.422;18.758;2022-09-13T21:36:15;4.03;;;3.40;;
37903;SDS011;23738;50.422;18.758;2022-09-13T21:38:41;5.15;;;4.03;;
37903;SDS011;23738;50.422;18.758;2022-09-13T21:41:09;6.00;;;4.15;;
37903;SDS011;23738;50.422;18.758;2022-09-13T21:43:37;5.25;;;3.83;;
37903;SDS011;23738;50.422;18.758;2022-09-13T21:46:13;6.90;;;3.70;;
37903;SDS011;23738;50.422;18.758;2022-09-13T21:48:48;4.75;;;3.83;;
37903;SDS011;23738;50.422;18.758;2022-09-13T21:51:24;5.87;;;4.05;;
37903;SDS011;23738;50.422;18.758;2022-09-13T21:53:53;4.00;;;3.50;;
37903;SDS011;23738;50.422;18.758;2022-09-13T21:56:23;6.33;;;3.45;;
37903;SDS011;23738;50.422;18.758;2022-09-13T21:58:52;4.92;;;4.12;;
37903;SDS011;23738;50.422;18.758;2022-09-13T22:01:25;5.05;;;3.67;;
37903;SDS011;23738;50.422;18.758;2022-09-13T22:03:54;3.77;;;3.00;;
37903;SDS011;23738;50.422;18.758;2022-09-13T22:06:20;4.10;;;3.15;;
37903;SDS011;23738;50.422;18.758;2022-09-13T22:08:48;3.87;;;3.40;;
37903;SDS011;23738;50.422;18.758;2022-09-13T22:11:18;4.17;;;3.50;;
37903;SDS011;23738;50.422;18.758;2022-09-13T22:13:46;3.87;;;3.57;;
37903;SDS011;23738;50.422;18.758;2022-09-13T22:16:14;3.65;;;3.17;;
37903;SDS011;23738;50.422;18.758;2022-09-13T22:18:49;5.10;;;3.00;;
37903;SDS011;23738;50.422;18.758;2022-09-13T22:21:15;5.17;;;3.40;;
37903;SDS011;23738;50.422;18.758;2022-09-13T22:23:45;4.42;;;3.02;;
37903;SDS011;23738;50.422;18.758;2022-09-13T22:26:12;4.35;;;3.35;;
37903;SDS011;23738;50.422;18.758;2022-09-13T22:28:41;4.35;;;3.33;;
37903;SDS011;23738;50.422;18.758;2022-09-13T22:31:09;3.92;;;3.02;;
37903;SDS011;23738;50.422;18.758;2022-09-13T22:33:44;4.12;;;3.60;;
37903;SDS011;23738;50.422;18.758;2022-09-13T22:36:11;3.10;;;2.75;;
37903;SDS011;23738;50.422;18.758;2022-09-13T22:38:40;4.37;;;2.83;;
37903;SDS011;23738;50.422;18.758;2022-09-13T22:41:08;4.33;;;3.15;;
37903;SDS011;23738;50.422;18.758;2022-09-13T22:43:38;6.92;;;3.92;;
37903;SDS011;23738;50.422;18.758;2022-09-13T22:46:13;3.67;;;3.37;;
37903;SDS011;23738;50.422;18.758;2022-09-13T22:48:42;3.45;;;3.15;;
37903;SDS011;23738;50.422;18.758;2022-09-13T22:51:09;3.35;;;3.05;;
37903;SDS011;23738;50.422;18.758;2022-09-13T22:53:38;3.72;;;3.10;;
37903;SDS011;23738;50.422;18.758;2022-09-13T22:56:14;5.87;;;2.77;;
37903;SDS011;23738;50.422;18.758;2022-09-13T22:58:57;3.47;;;2.92;;
37903;SDS011;23738;50.422;18.758;2022-09-13T23:01:22;3.52;;;3.22;;
37903;SDS011;23738;50.422;18.758;2022-09-13T23:03:50;4.65;;;3.50;;
37903;SDS011;23738;50.422;18.758;2022-09-13T23:06:17;3.67;;;3.37;;
37903;SDS011;23738;50.422;18.758;2022-09-13T23:08:45;3.30;;;2.98;;
37903;SDS011;23738;50.422;18.758;2022-09-13T23:11:20;3.08;;;2.77;;
37903;SDS011;23738;50.422;18.758;2022-09-13T23:13:50;4.87;;;3.55;;
37903;SDS011;23738;50.422;18.758;2022-09-13T23:16:18;3.70;;;3.40;;
37903;SDS011;23738;50.422;18.758;2022-09-13T23:18:48;4.17;;;3.45;;
37903;SDS011;23738;50.422;18.758;2022-09-13T23:21:18;5.78;;;3.62;;
37903;SDS011;23738;50.422;18.758;2022-09-13T23:23:46;4.20;;;3.20;;
37903;SDS011;23738;50.422;18.758;2022-09-13T23:26:13;3.85;;;2.87;;
37903;SDS011;23738;50.422;18.758;2022-09-13T23:28:42;3.75;;;2.70;;
37903;SDS011;23738;50.422;18.758;2022-09-13T23:31:11;3.98;;;3.22;;
37903;SDS011;23738;50.422;18.758;2022-09-13T23:33:40;5.20;;;3.92;;
37903;SDS011;23738;50.422;18.758;2022-09-13T23:36:09;4.05;;;3.25;;
37903;SDS011;23738;50.422;18.758;2022-09-13T23:38:44;6.03;;;3.98;;
37903;SDS011;23738;50.422;18.758;2022-09-13T23:41:07;3.72;;;3.27;;
37903;SDS011;23738;50.422;18.758;2022-09-13T23:43:34;3.95;;;2.67;;
37903;SDS011;23738;50.422;18.758;2022-09-13T23:46:00;4.12;;;3.02;;
37903;SDS011;23738;50.422;18.758;2022-09-13T23:48:26;3.85;;;3.47;;
37903;SDS011;23738;50.422;18.758;2022-09-13T23:51:03;4.17;;;3.87;;
37903;SDS011;23738;50.422;18.758;2022-09-13T23:53:28;3.92;;;3.62;;
37903;SDS011;23738;50.422;18.758;2022-09-13T23:55:55;4.22;;;3.42;;
37903;SDS011;23738;50.422;18.758;2022-09-13T23:58:22;3.58;;;3.08;;
